Time;durP1;ratioP1;P1;durP2;ratioP2;P2;SDS_P1;SDS_P2;PMS_P1;PMS_P2;Temp;Humidity;BMP_temperature;BMP_pressure;BME280_temperature;BME280_humidity;BME280_pressure;Samples;Min_cycle;Max_cycle;Signal;HPM_P1;HPM_P2
2023/05/31 00:01:29;;;;;;;5.37;1.80;;;;;;;15.07;88.57;96580.16;6130235;23;20053;-93
2023/05/31 00:03:54;;;;;;;5.70;2.00;;;;;;;14.99;89.34;96582.88;6130031;23;20008;-91
2023/05/31 00:06:20;;;;;;;6.73;2.87;;;;;;;15.13;88.34;96575.97;6130690;23;20006;-92
2023/05/31 00:08:46;;;;;;;6.57;2.20;;;;;;;14.99;88.50;96582.03;6128882;23;20008;-91
2023/05/31 00:11:12;;;;;;;6.07;2.13;;;;;;;14.69;89.84;96586.41;6130622;23;20005;-92
2023/05/31 00:13:40;;;;;;;6.10;2.20;;;;;;;14.88;87.40;96583.28;6130928;23;20085;-91
2023/05/31 00:16:07;;;;;;;5.57;2.10;;;;;;;14.92;86.78;96570.50;6131328;23;20005;-91
2023/05/31 00:18:32;;;;;;;6.97;2.00;;;;;;;15.03;86.36;96575.41;6130940;23;20001;-91
2023/05/31 00:20:58;;;;;;;7.07;1.70;;;;;;;14.77;88.46;96579.25;6130533;23;20006;-92
2023/05/31 00:23:24;;;;;;;3.90;1.53;;;;;;;14.95;87.63;96575.47;6129692;23;20001;-92
2023/05/31 00:25:49;;;;;;;5.13;2.10;;;;;;;14.94;88.48;96566.69;6130337;23;20021;-91
2023/05/31 00:28:15;;;;;;;5.03;2.03;;;;;;;14.79;88.10;96571.13;6132231;23;20060;-92
2023/05/31 00:30:40;;;;;;;5.00;2.10;;;;;;;14.89;86.84;96568.22;6133802;23;20349;-91
2023/05/31 00:33:06;;;;;;;10.80;2.27;;;;;;;14.87;86.37;96570.25;6131727;23;19997;-92
2023/05/31 00:35:31;;;;;;;6.27;1.53;;;;;;;14.96;84.83;96575.28;6138587;23;20009;-91
2023/05/31 00:37:57;;;;;;;4.77;1.90;;;;;;;14.95;84.80;96581.56;6131635;23;20005;-92
2023/05/31 00:40:23;;;;;;;4.83;1.90;;;;;;;14.92;85.50;96589.03;6130528;23;20009;-91
2023/05/31 00:42:51;;;;;;;4.53;1.83;;;;;;;14.69;88.36;96576.66;6128380;23;20010;-91
2023/05/31 00:45:17;;;;;;;7.00;1.93;;;;;;;14.61;88.39;96582.81;6128013;23;20421;-91
2023/05/31 00:47:43;;;;;;;5.27;1.70;;;;;;;14.76;86.53;96579.44;6128109;23;20013;-91
2023/05/31 00:50:09;;;;;;;8.30;1.90;;;;;;;14.55;88.09;96580.03;6104119;23;20001;-92
2023/05/31 00:52:35;;;;;;;3.80;1.43;;;;;;;14.90;86.48;96570.69;6128839;23;20513;-91
2023/05/31 00:55:02;;;;;;;5.83;2.10;;;;;;;14.78;85.71;96572.13;6129073;23;20060;-92
2023/05/31 00:57:28;;;;;;;4.00;1.73;;;;;;;14.73;85.38;96575.31;6115321;23;20029;-91
2023/05/31 00:59:53;;;;;;;11.77;2.00;;;;;;;14.92;83.96;96571.34;6142381;23;20005;-93
2023/05/31 01:02:20;;;;;;;5.23;2.27;;;;;;;14.62;86.17;96575.72;6145696;23;20013;-91
2023/05/31 01:04:50;;;;;;;6.10;1.90;;;;;;;14.69;85.35;96567.88;6134089;23;20006;-92
2023/05/31 01:07:15;;;;;;;6.50;1.80;;;;;;;14.75;84.97;96564.53;6129203;23;20071;-91
2023/05/31 01:09:42;;;;;;;7.93;2.00;;;;;;;14.74;85.20;96561.06;6130861;23;20009;-91
2023/05/31 01:12:42;;;;;;;7.00;1.67;;;;;;;14.59;84.57;96558.38;6133060;23;20009;-91
2023/05/31 01:15:17;;;;;;;4.63;1.70;;;;;;;14.85;83.89;96555.38;6132256;23;20096;-92
2023/05/31 01:18:02;;;;;;;7.30;1.97;;;;;;;14.78;84.86;96557.03;6129687;23;20092;-91
2023/05/31 01:20:32;;;;;;;4.93;1.90;;;;;;;14.98;82.54;96552.09;6130421;23;20005;-92
2023/05/31 01:23:04;;;;;;;7.13;2.53;;;;;;;14.87;83.24;96562.28;6130441;23;20059;-91
2023/05/31 01:25:55;;;;;;;5.07;2.10;;;;;;;14.76;85.24;96559.06;6129821;23;20014;-91
2023/05/31 01:28:21;;;;;;;6.10;1.93;;;;;;;14.76;84.64;96550.31;6130011;23;20009;-92
2023/05/31 01:30:49;;;;;;;6.00;1.93;;;;;;;14.72;85.84;96557.78;6104749;23;20021;-91
2023/05/31 01:33:17;;;;;;;6.17;1.70;;;;;;;14.59;86.12;96554.91;6132788;23;20017;-92
2023/05/31 01:35:42;;;;;;;4.43;1.50;;;;;;;14.75;84.63;96552.09;6131656;23;20029;-91
2023/05/31 01:38:08;;;;;;;4.50;1.43;;;;;;;14.81;84.96;96556.69;6130190;23;20012;-91
2023/05/31 01:40:35;;;;;;;3.73;1.80;;;;;;;14.82;85.08;96549.56;6130660;23;20005;-92
2023/05/31 01:43:05;;;;;;;5.27;2.07;;;;;;;14.71;86.75;96550.00;6131292;23;20012;-92
2023/05/31 01:45:32;;;;;;;4.90;2.10;;;;;;;14.51;88.59;96552.28;6130349;23;20006;-91
2023/05/31 01:48:02;;;;;;;5.83;2.00;;;;;;;14.66;86.46;96553.19;6133009;23;20020;-92
2023/05/31 01:50:39;;;;;;;5.00;1.87;;;;;;;14.64;86.97;96549.88;6108868;23;20033;-91
2023/05/31 01:53:06;;;;;;;6.77;1.70;;;;;;;14.54;87.79;96552.75;6135343;23;20028;-91
2023/05/31 01:55:34;;;;;;;5.50;1.83;;;;;;;14.67;87.70;96554.81;6149814;23;19998;-92
2023/05/31 01:58:01;;;;;;;6.40;1.87;;;;;;;14.44;89.77;96551.31;6119572;23;20013;-91
2023/05/31 02:00:30;;;;;;;4.13;1.87;;;;;;;14.34;89.51;96557.66;6133718;23;20013;-90
2023/05/31 02:02:57;;;;;;;6.10;1.90;;;;;;;14.48;89.04;96561.38;6132214;23;20012;-92
2023/05/31 02:05:23;;;;;;;4.87;1.93;;;;;;;14.50;88.19;96564.69;6131002;23;20010;-92
2023/05/31 02:07:54;;;;;;;5.77;1.90;;;;;;;14.29;90.46;96562.66;6132095;23;20533;-91
2023/05/31 02:10:20;;;;;;;3.07;1.43;;;;;;;14.38;90.94;96566.06;6132514;23;20013;-91
2023/05/31 02:12:45;;;;;;;7.77;1.90;;;;;;;14.33;91.03;96563.13;6131904;23;20005;-92
2023/05/31 02:15:12;;;;;;;9.73;2.20;;;;;;;14.31;91.13;96571.22;6132235;23;20010;-92
2023/05/31 02:17:42;;;;;;;6.60;1.87;;;;;;;14.27;92.04;96572.56;6129499;23;20012;-91
2023/05/31 02:20:13;;;;;;;5.03;1.70;;;;;;;14.21;93.22;96575.09;6128099;23;20081;-92
2023/05/31 02:22:43;;;;;;;6.33;1.83;;;;;;;14.25;92.53;96564.00;6128391;23;20036;-90
2023/05/31 02:25:10;;;;;;;4.37;1.93;;;;;;;14.37;92.37;96575.00;6136486;23;20017;-91
2023/05/31 02:27:39;;;;;;;3.27;1.50;;;;;;;14.36;93.08;96568.06;6136470;23;20009;-91
2023/05/31 02:30:06;;;;;;;4.73;1.83;;;;;;;14.27;92.92;96567.28;6128753;23;20016;-91
2023/05/31 02:32:35;;;;;;;8.23;2.23;;;;;;;14.30;93.50;96579.34;6129343;23;20001;-92
2023/05/31 02:35:09;;;;;;;5.23;1.70;;;;;;;14.15;94.39;96576.59;6103973;23;20006;-90
2023/05/31 02:37:36;;;;;;;5.23;2.07;;;;;;;14.21;94.67;96569.81;6103693;23;20009;-90
2023/05/31 02:40:07;;;;;;;7.63;2.40;;;;;;;14.13;95.15;96568.03;6127175;23;20005;-91
2023/05/31 02:42:34;;;;;;;5.63;1.90;;;;;;;14.04;96.01;96566.41;6101688;23;20093;-91
2023/05/31 02:45:00;;;;;;;5.73;2.20;;;;;;;13.91;97.74;96561.69;6127378;23;20008;-91
2023/05/31 02:47:27;;;;;;;4.67;1.70;;;;;;;14.06;96.35;96564.44;6129011;23;20013;-91
2023/05/31 02:49:53;;;;;;;8.90;2.00;;;;;;;14.01;96.50;96562.28;6128481;23;20016;-91
2023/05/31 02:52:23;;;;;;;4.53;2.00;;;;;;;14.02;96.48;96561.31;6128524;23;20046;-92
2023/05/31 02:54:54;;;;;;;5.57;2.08;;;;;;;14.00;96.85;96558.00;6130438;23;20016;-91
2023/05/31 02:57:24;;;;;;;8.33;2.20;;;;;;;13.82;98.60;96554.78;6128487;23;20394;-92
2023/05/31 02:59:55;;;;;;;6.77;2.30;;;;;;;13.97;97.93;96560.19;6128447;23;20016;-91
2023/05/31 03:02:21;;;;;;;5.67;1.57;;;;;;;13.76;98.74;96566.88;6128550;23;20096;-91
2023/05/31 03:04:59;;;;;;;5.17;1.80;;;;;;;13.78;99.74;96559.59;6128095;23;20011;-91
2023/05/31 03:07:25;;;;;;;5.60;2.27;;;;;;;13.36;100.00;96560.69;6129048;23;20013;-91
2023/05/31 03:09:51;;;;;;;8.20;3.13;;;;;;;13.46;100.00;96567.63;6132059;23;20016;-91
2023/05/31 03:12:16;;;;;;;4.83;1.63;;;;;;;13.41;100.00;96563.69;6132458;23;20009;-92
2023/05/31 03:14:43;;;;;;;6.30;2.00;;;;;;;13.61;100.00;96564.09;6132270;23;20041;-91
2023/05/31 03:17:09;;;;;;;4.33;1.63;;;;;;;13.44;100.00;96567.78;6129179;23;20017;-91
2023/05/31 03:19:36;;;;;;;3.30;1.53;;;;;;;13.56;100.00;96555.03;6129502;23;20033;-91
2023/05/31 03:22:04;;;;;;;9.20;2.13;;;;;;;13.52;100.00;96562.50;6131070;23;20151;-92
2023/05/31 03:24:31;;;;;;;5.93;1.80;;;;;;;13.29;100.00;96565.00;6110058;23;20085;-91
2023/05/31 03:26:57;;;;;;;4.27;1.70;;;;;;;13.44;100.00;96565.97;6134526;23;20015;-91
2023/05/31 03:29:24;;;;;;;6.40;2.10;;;;;;;13.60;100.00;96562.44;6131348;23;20029;-91
2023/05/31 03:31:50;;;;;;;5.10;2.10;;;;;;;13.43;100.00;96577.53;6131917;23;20430;-91
2023/05/31 03:34:16;;;;;;;4.80;1.80;;;;;;;13.51;100.00;96573.22;6132159;23;20012;-92
2023/05/31 03:36:42;;;;;;;7.13;2.03;;;;;;;13.58;100.00;96575.03;6106759;23;20013;-91
2023/05/31 03:39:33;;;;;;;6.13;1.77;;;;;;;13.60;100.00;96572.19;6129850;23;20541;-91
2023/05/31 03:42:01;;;;;;;6.13;2.20;;;;;;;13.78;100.00;96575.47;6128439;23;20009;-91
2023/05/31 03:44:28;;;;;;;5.83;2.17;;;;;;;13.87;99.70;96571.78;6128501;23;20009;-92
2023/05/31 03:46:54;;;;;;;6.77;2.23;;;;;;;13.50;100.00;96568.94;6129095;23;20009;-92
2023/05/31 03:49:19;;;;;;;7.70;2.10;;;;;;;13.86;100.00;96569.31;6132598;23;20014;-91
2023/05/31 03:51:46;;;;;;;5.57;2.37;;;;;;;13.57;100.00;96573.34;6133189;23;20008;-92
2023/05/31 03:54:12;;;;;;;6.07;1.87;;;;;;;13.61;100.00;96569.38;6142652;23;20001;-92
2023/05/31 03:56:37;;;;;;;4.63;1.87;;;;;;;13.68;100.00;96577.44;6151885;23;20009;-92
2023/05/31 03:59:03;;;;;;;5.20;1.80;;;;;;;13.61;100.00;96565.91;6148826;23;20006;-91
2023/05/31 04:01:29;;;;;;;9.07;2.43;;;;;;;13.65;100.00;96569.88;6136270;23;20005;-91
2023/05/31 04:03:55;;;;;;;5.13;2.23;;;;;;;13.45;100.00;96574.72;6133676;23;20016;-91
2023/05/31 04:06:20;;;;;;;9.30;2.57;;;;;;;13.46;100.00;96576.38;6130747;23;20434;-91
2023/05/31 04:08:46;;;;;;;8.03;2.27;;;;;;;13.61;100.00;96571.19;6130885;23;20006;-90
2023/05/31 04:11:12;;;;;;;5.60;2.00;;;;;;;13.69;100.00;96576.47;6106647;23;20013;-92
2023/05/31 04:13:37;;;;;;;5.87;2.77;;;;;;;13.72;100.00;96575.31;6132022;23;20021;-91
2023/05/31 04:16:03;;;;;;;7.63;2.23;;;;;;;13.74;100.00;96574.13;6141646;23;20005;-91
2023/05/31 04:18:29;;;;;;;5.80;1.83;;;;;;;13.83;100.00;96578.41;6135700;23;20005;-91
2023/05/31 04:20:55;;;;;;;7.93;2.40;;;;;;;13.93;100.00;96582.66;6138926;23;20496;-91
2023/05/31 04:23:21;;;;;;;7.87;2.50;;;;;;;13.53;100.00;96573.88;6129599;23;20640;-91
2023/05/31 04:25:47;;;;;;;7.17;1.77;;;;;;;13.50;100.00;96582.97;6129950;23;20497;-90
2023/05/31 04:28:15;;;;;;;5.03;2.13;;;;;;;13.76;100.00;96588.00;6137287;23;20093;-91
2023/05/31 04:30:41;;;;;;;8.77;2.50;;;;;;;13.73;100.00;96593.63;6147455;23;20006;-91
2023/05/31 04:33:07;;;;;;;4.03;1.63;;;;;;;13.59;100.00;96592.53;6148807;23;20054;-91
2023/05/31 04:35:35;;;;;;;5.93;2.40;;;;;;;13.78;100.00;96591.31;6140083;23;20028;-91
2023/05/31 04:38:27;;;;;;;6.70;2.40;;;;;;;13.90;100.00;96591.75;6147320;23;20001;-91
2023/05/31 04:41:11;;;;;;;7.40;2.27;;;;;;;14.23;100.00;96595.09;6156972;23;20009;-91
2023/05/31 04:43:39;;;;;;;3.83;1.80;;;;;;;14.42;100.00;96601.78;6132723;23;20693;-91
2023/05/31 04:46:05;;;;;;;9.57;1.90;;;;;;;14.31;100.00;96602.16;6133935;23;20353;-89
2023/05/31 04:48:32;;;;;;;6.03;1.90;;;;;;;13.98;100.00;96602.28;6144558;23;20084;-90
2023/05/31 04:50:59;;;;;;;6.80;2.20;;;;;;;13.80;100.00;96602.53;6115609;23;20425;-91
2023/05/31 04:53:25;;;;;;;7.07;1.97;;;;;;;14.51;100.00;96610.50;6138169;23;20061;-91
2023/05/31 04:55:51;;;;;;;6.60;2.30;;;;;;;14.46;100.00;96607.53;6134629;23;20450;-92
2023/05/31 04:58:19;;;;;;;5.90;1.90;;;;;;;14.54;100.00;96596.94;6116944;23;20001;-91
2023/05/31 05:00:45;;;;;;;5.93;2.13;;;;;;;14.61;100.00;96601.34;6141356;23;20069;-90
2023/05/31 05:03:20;;;;;;;7.33;1.90;;;;;;;14.80;100.00;96601.91;6121947;23;20005;-90
2023/05/31 05:05:47;;;;;;;6.20;2.40;;;;;;;15.12;97.90;96606.09;6139607;23;20012;-91
2023/05/31 05:08:13;;;;;;;9.67;2.40;;;;;;;15.26;97.31;96602.69;6141811;23;20045;-91
2023/05/31 05:10:41;;;;;;;7.20;2.37;;;;;;;15.32;97.13;96601.13;6151316;23;20005;-90
2023/05/31 05:13:07;;;;;;;6.57;1.90;;;;;;;15.42;97.45;96600.88;6144695;23;20385;-92
2023/05/31 05:15:34;;;;;;;5.37;1.73;;;;;;;15.54;95.85;96604.72;6135887;23;20009;-92
2023/05/31 05:18:17;;;;;;;5.00;2.00;;;;;;;15.49;94.56;96602.63;6120677;23;20084;-87
2023/05/31 05:20:43;;;;;;;9.30;2.17;;;;;;;15.66;94.40;96613.94;6129688;23;20581;-88
2023/05/31 05:23:11;;;;;;;5.83;1.80;;;;;;;15.61;95.38;96610.94;6129176;23;20327;-89
2023/05/31 05:25:37;;;;;;;8.63;2.30;;;;;;;15.90;95.15;96609.38;6104308;23;20008;-88
2023/05/31 05:28:03;;;;;;;7.00;2.30;;;;;;;15.61;95.55;96608.31;6128312;23;20005;-89
2023/05/31 05:30:29;;;;;;;6.57;2.13;;;;;;;16.30;93.85;96610.69;6129284;23;20006;-89
2023/05/31 05:32:54;;;;;;;5.90;1.70;;;;;;;16.33;91.85;96612.13;6125766;23;20116;-89
2023/05/31 05:35:20;;;;;;;6.03;2.50;;;;;;;16.51;90.40;96612.56;6129381;23;20069;-89
2023/05/31 05:37:47;;;;;;;6.10;2.27;;;;;;;16.77;88.47;96605.91;6132071;23;20010;-88
2023/05/31 05:40:12;;;;;;;6.63;2.50;;;;;;;16.72;89.35;96609.13;6132799;23;20032;-89
2023/05/31 05:42:39;;;;;;;6.80;2.10;;;;;;;16.70;87.79;96606.66;6131212;23;20009;-90
2023/05/31 05:45:08;;;;;;;6.20;2.63;;;;;;;16.72;89.66;96615.25;6129305;23;20009;-90
2023/05/31 05:47:36;;;;;;;6.90;2.53;;;;;;;16.90;89.41;96608.69;6129710;23;20025;-90
2023/05/31 05:50:02;;;;;;;6.00;2.20;;;;;;;17.46;84.75;96600.00;6131337;23;20434;-90
2023/05/31 05:52:29;;;;;;;5.37;2.37;;;;;;;17.37;85.40;96607.28;6133740;23;20127;-89
2023/05/31 05:54:55;;;;;;;6.60;1.93;;;;;;;17.50;80.93;96603.91;6132931;23;20001;-89
2023/05/31 05:57:21;;;;;;;9.00;2.60;;;;;;;17.78;83.47;96603.94;6134401;23;20001;-87
2023/05/31 05:59:49;;;;;;;7.83;2.60;;;;;;;18.11;78.58;96604.94;6130849;23;20035;-86
2023/05/31 06:02:20;;;;;;;6.77;2.17;;;;;;;17.95;76.29;96607.91;6127079;23;20334;-86
2023/05/31 06:04:47;;;;;;;5.20;1.60;;;;;;;18.48;75.45;96600.16;6127890;23;20010;-86
2023/05/31 06:07:12;;;;;;;4.80;2.00;;;;;;;18.64;72.74;96603.47;6104610;23;20001;-85
2023/05/31 06:09:38;;;;;;;6.07;2.00;;;;;;;18.51;72.00;96606.91;6129736;23;20008;-87
2023/05/31 06:12:04;;;;;;;9.47;2.17;;;;;;;19.04;67.25;96604.41;6128229;23;20002;-86
2023/05/31 06:14:34;;;;;;;9.73;2.50;;;;;;;18.84;68.26;96604.38;6131382;23;19997;-86
2023/05/31 06:17:00;;;;;;;5.80;2.13;;;;;;;18.68;71.28;96610.03;6129504;23;20021;-85
2023/05/31 06:19:26;;;;;;;3.93;1.73;;;;;;;19.20;67.92;96608.53;6128471;23;20010;-86
2023/05/31 06:21:56;;;;;;;6.60;2.40;;;;;;;19.35;67.62;96603.00;6127811;23;20005;-86
2023/05/31 06:24:21;;;;;;;8.07;2.20;;;;;;;19.99;62.46;96600.50;6127618;23;20006;-86
2023/05/31 06:26:47;;;;;;;8.50;2.90;;;;;;;19.86;64.60;96602.38;6128442;23;20097;-86
2023/05/31 06:29:13;;;;;;;7.57;3.37;;;;;;;19.67;63.56;96598.69;6127537;23;20001;-86
2023/05/31 06:32:10;;;;;;;5.57;2.03;;;;;;;20.10;60.70;96596.34;6117960;23;20064;-87
2023/05/31 06:34:41;;;;;;;6.67;2.27;;;;;;;20.77;58.52;96591.56;6128997;23;20002;-86
2023/05/31 06:37:08;;;;;;;5.68;2.35;;;;;;;20.75;56.17;96606.97;6128202;23;20013;-86
2023/05/31 06:39:34;;;;;;;7.80;2.10;;;;;;;20.35;57.20;96596.44;6127867;23;20010;-86
2023/05/31 06:42:01;;;;;;;9.00;2.13;;;;;;;19.91;57.02;96592.69;6127510;23;20005;-86
2023/05/31 06:44:45;;;;;;;6.43;2.20;;;;;;;20.54;56.61;96594.75;6132066;23;20013;-86
2023/05/31 06:47:21;;;;;;;8.80;2.20;;;;;;;20.76;55.11;96597.94;6130751;23;20001;-85
2023/05/31 06:50:22;;;;;;;8.93;2.25;;;;;;;20.89;52.44;96586.31;6038409;23;20074;-87
2023/05/31 06:53:09;;;;;;;6.20;2.40;;;;;;;20.74;51.93;96594.66;6125431;23;20032;-86
2023/05/31 06:55:57;;;;;;;6.57;2.30;;;;;;;21.34;50.40;96583.56;6131320;23;20075;-87
2023/05/31 06:58:22;;;;;;;;;;;;;;;21.53;50.19;96584.44;6132386;23;20013;-87
2023/05/31 07:00:50;;;;;;;5.50;2.35;;;;;;;21.50;49.22;96592.91;6132173;23;19904;-86
2023/05/31 07:03:16;;;;;;;8.30;2.50;;;;;;;21.41;49.76;96579.00;6130638;23;20258;-86
2023/05/31 07:05:43;;;;;;;6.72;2.28;;;;;;;21.46;48.53;96571.09;6130708;23;20013;-86
2023/05/31 07:08:10;;;;;;;7.53;2.97;;;;;;;21.69;46.10;96583.06;6129716;23;20058;-87
2023/05/31 07:10:47;;;;;;;7.05;2.47;;;;;;;21.79;47.04;96578.00;6131051;23;20025;-87
2023/05/31 07:13:13;;;;;;;7.82;2.95;;;;;;;20.80;50.88;96593.00;6130364;23;20012;-86
2023/05/31 07:15:39;;;;;;;9.00;2.40;;;;;;;21.40;49.39;96583.53;6130598;23;20461;-86
2023/05/31 07:18:05;;;;;;;8.75;2.33;;;;;;;21.99;45.99;96581.28;6127078;23;20009;-87
2023/05/31 07:20:33;;;;;;;4.78;2.05;;;;;;;22.35;44.06;96574.31;6126881;23;20017;-88
2023/05/31 07:22:58;;;;;;;7.88;2.75;;;;;;;22.54;45.98;96575.94;6124873;23;20342;-82
2023/05/31 07:25:24;;;;;;;10.55;2.60;;;;;;;23.44;44.16;96572.34;6148614;23;20001;-82
2023/05/31 07:27:50;;;;;;;10.50;2.55;;;;;;;22.61;43.69;96573.16;6148327;23;20005;-83
2023/05/31 07:30:19;;;;;;;7.03;2.28;;;;;;;24.09;41.61;96557.97;6125291;23;20009;-82
2023/05/31 07:32:46;;;;;;;5.07;1.73;;;;;;;23.84;40.70;96568.97;6125791;23;20005;-84
2023/05/31 07:35:12;;;;;;;6.00;2.20;;;;;;;23.59;41.30;96574.56;6124548;23;20288;-83
2023/05/31 07:37:37;;;;;;;9.25;2.30;;;;;;;24.43;40.09;96566.22;6125145;23;20806;-82
2023/05/31 07:40:06;;;;;;;5.38;2.30;;;;;;;22.66;43.73;96580.53;6125402;23;20008;-88
2023/05/31 07:42:32;;;;;;;7.63;2.35;;;;;;;24.72;39.19;96558.97;6125155;23;20426;-83
2023/05/31 07:44:58;;;;;;;5.88;1.92;;;;;;;23.70;40.31;96564.91;6151176;23;20599;-85
2023/05/31 07:47:24;;;;;;;5.30;2.00;;;;;;;24.10;38.71;96553.41;6127902;23;20110;-85
2023/05/31 07:49:51;;;;;;;5.22;2.35;;;;;;;24.26;38.96;96560.75;6131428;23;20006;-83
2023/05/31 07:52:21;;;;;;;7.63;2.30;;;;;;;24.93;37.43;96557.47;6130344;23;20001;-83
2023/05/31 07:54:48;;;;;;;4.95;2.13;;;;;;;24.55;36.57;96553.56;6129980;23;20088;-84
2023/05/31 07:57:15;;;;;;;5.03;1.60;;;;;;;24.47;36.40;96559.28;6129085;23;20013;-84
2023/05/31 07:59:40;;;;;;;8.30;2.63;;;;;;;24.79;35.48;96545.38;6154670;23;20001;-83
2023/05/31 08:02:06;;;;;;;6.90;2.20;;;;;;;24.57;35.80;96542.53;6155185;23;20008;-84
2023/05/31 08:04:32;;;;;;;4.28;1.65;;;;;;;24.54;34.16;96549.22;6133751;23;20064;-84
2023/05/31 08:06:57;;;;;;;5.35;2.03;;;;;;;23.83;34.80;96553.91;6141509;23;20097;-84
2023/05/31 08:09:23;;;;;;;7.60;2.42;;;;;;;25.10;34.45;96539.44;6138790;23;20001;-84
2023/05/31 08:11:48;;;;;;;6.53;2.08;;;;;;;24.59;34.25;96548.50;6138909;23;20005;-84
2023/05/31 08:14:14;;;;;;;5.18;1.90;;;;;;;24.90;34.60;96541.81;6126512;23;20006;-84
2023/05/31 08:16:45;;;;;;;5.22;2.10;;;;;;;26.17;33.45;96539.44;6098025;23;20012;-84
2023/05/31 08:19:10;;;;;;;6.05;1.90;;;;;;;25.46;33.16;96550.84;6127947;23;20513;-84
2023/05/31 08:21:37;;;;;;;6.65;2.33;;;;;;;26.31;32.29;96546.88;6129213;23;20012;-84
2023/05/31 08:24:06;;;;;;;8.32;2.22;;;;;;;25.48;33.64;96547.88;6128523;23;20005;-84
2023/05/31 08:26:32;;;;;;;5.60;2.03;;;;;;;25.43;34.25;96548.63;6123773;23;20143;-83
2023/05/31 08:28:58;;;;;;;5.75;1.92;;;;;;;26.69;32.43;96541.66;6147356;23;20008;-83
2023/05/31 08:31:24;;;;;;;6.70;2.28;;;;;;;26.12;33.04;96548.25;6122543;23;20091;-84
2023/05/31 08:34:07;;;;;;;7.30;2.33;;;;;;;24.97;33.96;96552.41;6096907;23;19998;-84
2023/05/31 08:36:34;;;;;;;5.47;2.45;;;;;;;26.32;34.02;96542.31;6122920;23;20016;-84
2023/05/31 08:38:59;;;;;;;9.43;2.35;;;;;;;27.50;32.51;96528.91;6148242;23;20005;-83
2023/05/31 08:41:30;;;;;;;7.53;2.17;;;;;;;27.40;31.63;96530.72;6126660;23;20522;-84
2023/05/31 08:43:56;;;;;;;5.07;2.00;;;;;;;25.95;34.23;96532.16;6125146;23;20012;-84
2023/05/31 08:46:25;;;;;;;6.75;2.17;;;;;;;26.76;33.35;96535.03;6125898;23;20001;-83
2023/05/31 08:49:05;;;;;;;6.15;2.42;;;;;;;27.03;32.37;96537.69;6125309;23;20016;-82
2023/05/31 08:51:34;;;;;;;12.07;2.75;;;;;;;27.83;31.51;96524.25;6124885;23;20009;-84
2023/05/31 08:54:01;;;;;;;4.63;2.25;;;;;;;28.33;31.87;96533.69;6125312;23;20629;-83
2023/05/31 08:56:28;;;;;;;7.40;2.55;;;;;;;27.99;31.35;96527.88;6129802;23;20018;-84
2023/05/31 08:58:53;;;;;;;7.60;2.38;;;;;;;27.72;31.63;96525.25;6130317;23;20016;-84
2023/05/31 09:01:20;;;;;;;4.63;2.00;;;;;;;27.49;30.98;96529.16;6131280;23;20334;-83
2023/05/31 09:03:46;;;;;;;6.60;2.58;;;;;;;28.74;30.43;96524.91;6107286;23;20088;-83
2023/05/31 09:06:12;;;;;;;8.10;1.95;;;;;;;28.26;31.12;96522.31;6107393;23;20084;-83
2023/05/31 09:08:37;;;;;;;6.65;2.75;;;;;;;27.98;30.73;96533.53;6157714;23;20001;-83
2023/05/31 09:11:05;;;;;;;7.28;2.85;;;;;;;27.65;31.57;96521.97;6130869;23;20008;-82
2023/05/31 09:13:31;;;;;;;5.07;1.80;;;;;;;27.68;31.18;96522.25;6131429;23;20026;-83
2023/05/31 09:15:59;;;;;;;5.57;2.42;;;;;;;28.11;30.92;96523.06;6156817;23;20020;-83
2023/05/31 09:18:29;;;;;;;6.07;2.08;;;;;;;27.99;31.42;96532.47;6157410;23;20080;-83
2023/05/31 09:20:56;;;;;;;4.90;2.10;;;;;;;28.40;30.25;96526.19;6157770;23;20016;-85
2023/05/31 09:23:21;;;;;;;5.43;1.98;;;;;;;28.56;30.13;96532.44;6131578;23;19997;-83
2023/05/31 09:25:49;;;;;;;7.07;2.30;;;;;;;27.77;30.79;96524.50;6131889;23;20020;-81
2023/05/31 09:28:17;;;;;;;6.78;2.30;;;;;;;28.20;30.96;96534.16;6132059;23;20029;-83
2023/05/31 09:30:42;;;;;;;4.82;2.10;;;;;;;28.24;30.27;96523.66;6132156;23;20005;-84
2023/05/31 09:33:08;;;;;;;6.63;1.95;;;;;;;26.99;30.74;96539.25;6131662;23;20008;-83
2023/05/31 09:35:34;;;;;;;5.45;2.38;;;;;;;26.95;31.75;96526.53;6129689;23;20009;-84
2023/05/31 09:38:19;;;;;;;5.28;2.22;;;;;;;27.83;32.10;96524.25;6130203;23;20688;-83
2023/05/31 09:40:44;;;;;;;6.00;2.20;;;;;;;28.19;32.19;96519.84;6156281;23;20004;-84
2023/05/31 09:43:15;;;;;;;7.65;2.22;;;;;;;28.52;31.58;96519.72;6130989;23;20013;-83
2023/05/31 09:45:46;;;;;;;6.57;2.42;;;;;;;29.12;29.92;96520.91;6154497;23;20006;-84
2023/05/31 09:48:12;;;;;;;7.53;2.40;;;;;;;28.94;29.38;96511.41;6129283;23;20012;-84
2023/05/31 09:50:39;;;;;;;9.13;2.63;;;;;;;28.32;30.51;96526.66;6129966;23;20092;-83
2023/05/31 09:53:04;;;;;;;5.72;2.30;;;;;;;28.27;29.56;96523.94;6130365;23;20009;-83
2023/05/31 09:55:42;;;;;;;7.85;3.05;;;;;;;28.71;28.72;96528.97;6131966;23;20017;-84
2023/05/31 09:58:30;;;;;;;5.70;2.38;;;;;;;28.15;28.43;96523.34;6105500;23;20014;-85
2023/05/31 10:00:58;;;;;;;6.60;1.98;;;;;;;29.33;27.73;96513.59;6130268;23;20095;-84
2023/05/31 10:03:31;;;;;;;9.60;3.22;;;;;;;29.24;27.74;96516.06;6131641;23;20092;-84
2023/05/31 10:05:56;;;;;;;4.82;2.25;;;;;;;28.08;29.75;96515.47;6131648;23;20005;-85
2023/05/31 10:08:23;;;;;;;5.75;2.22;;;;;;;28.61;28.93;96518.94;6130818;23;20010;-85
2023/05/31 10:10:49;;;;;;;6.15;2.53;;;;;;;28.75;27.61;96518.41;6130375;23;20063;-88
2023/05/31 10:13:17;;;;;;;6.70;2.25;;;;;;;27.99;26.41;96521.66;6130560;23;20010;-85
2023/05/31 10:15:46;;;;;;;6.28;2.25;;;;;;;28.02;27.92;96526.53;6134829;23;20047;-86
2023/05/31 10:18:16;;;;;;;8.68;2.17;;;;;;;28.81;26.76;96523.56;6123630;23;20049;-85
2023/05/31 10:20:59;;;;;;;4.30;1.92;;;;;;;27.14;27.62;96522.44;6125302;23;20009;-85
2023/05/31 10:23:26;;;;;;;6.07;1.83;;;;;;;26.88;28.58;96518.66;6101149;23;20001;-85
2023/05/31 10:26:17;;;;;;;5.00;1.83;;;;;;;28.98;26.60;96511.69;6124919;23;20009;-83
2023/05/31 10:28:59;;;;;;;4.28;1.70;;;;;;;28.95;26.51;96521.16;6126172;23;20005;-85
2023/05/31 10:31:33;;;;;;;7.90;2.03;;;;;;;27.64;26.94;96514.97;6124822;23;20012;-85
2023/05/31 10:34:23;;;;;;;4.50;2.00;;;;;;;29.24;26.12;96509.81;6124944;23;20012;-85
2023/05/31 10:36:53;;;;;;;5.07;2.03;;;;;;;28.76;24.97;96512.72;6114406;23;20006;-84
2023/05/31 10:39:55;;;;;;;5.70;2.13;;;;;;;28.20;25.00;96502.56;6124878;23;20009;-84
2023/05/31 10:42:59;;;;;;;7.63;2.22;;;;;;;28.77;25.78;96503.53;6125050;23;20092;-85
2023/05/31 10:45:37;;;;;;;;;;;;;;;28.09;26.52;96494.66;6151337;23;20315;-84
2023/05/31 10:48:22;;;;;;;5.03;1.85;;;;;;;29.50;25.96;96488.91;6154525;23;19919;-85
2023/05/31 10:50:57;;;;;;;3.60;1.83;;;;;;;29.94;23.96;96486.38;6130182;23;20006;-84
2023/05/31 10:53:31;;;;;;;5.80;2.00;;;;;;;29.31;23.67;96496.78;6129279;23;20077;-83
2023/05/31 10:56:13;;;;;;;12.88;2.67;;;;;;;29.04;23.69;96495.19;6105556;23;20692;-83
2023/05/31 10:58:47;;;;;;;4.22;1.63;;;;;;;29.35;24.70;96495.19;6129840;23;20025;-84
2023/05/31 11:01:14;;;;;;;4.22;2.08;;;;;;;29.32;25.48;96488.41;6128176;23;20013;-84
2023/05/31 11:03:52;;;;;;;5.18;2.22;;;;;;;29.62;24.65;96485.97;6130454;23;20006;-89
2023/05/31 11:06:58;;;;;;;12.32;5.07;;;;;;;28.81;25.23;96493.78;6131102;23;20021;-89
2023/05/31 11:09:58;;;;;;;5.43;2.40;;;;;;;30.12;23.76;96484.97;6155959;23;20002;-89
2023/05/31 11:16:15;;;;;;;4.75;1.80;;;;;;;28.53;25.08;96497.00;6112543;23;20055;-94
2023/05/31 11:19:24;;;;;;;7.82;2.15;;;;;;;27.03;25.27;96489.13;6136514;23;20009;-94
2023/05/31 11:21:55;;;;;;;4.57;1.90;;;;;;;27.30;26.25;96482.88;6134353;23;20005;-95
2023/05/31 12:15:03;;;;;;;6.95;2.50;;;;;;;29.70;23.84;96440.13;6155934;23;20028;-88
2023/05/31 12:30:05;;;;;;;6.45;2.15;;;;;;;28.92;24.47;96437.75;6147598;23;20652;-89
2023/05/31 12:45:43;;;;;;;5.03;2.38;;;;;;;29.18;24.23;96430.47;5968975;23;20069;-89
2023/05/31 13:04:08;;;;;;;4.38;2.03;;;;;;;29.97;24.08;96419.94;6003362;23;20048;-90
2023/05/31 13:06:33;;;;;;;6.57;2.40;;;;;;;30.06;24.09;96410.94;6044486;23;20025;-90
2023/05/31 13:08:59;;;;;;;5.20;2.30;;;;;;;29.95;24.14;96417.53;6120199;23;20030;-88
2023/05/31 13:11:26;;;;;;;4.35;1.98;;;;;;;29.83;24.67;96409.69;6124699;23;20009;-90
2023/05/31 13:13:51;;;;;;;4.25;1.92;;;;;;;29.67;24.89;96421.69;6125522;23;20406;-89
2023/05/31 13:16:17;;;;;;;4.78;1.83;;;;;;;29.25;24.65;96417.44;6125205;23;20036;-88
2023/05/31 13:18:43;;;;;;;6.40;2.20;;;;;;;29.41;24.96;96418.25;6124021;23;20092;-89